sensor_id;sensor_type;location;lat;lon;timestamp;P1;durP1;ratioP1;P2;durP2;ratioP2
29254;SDS011;16277;48.890;2.306;2022-07-06T00:09:16;2.37;;;1.10;;
29254;SDS011;16277;48.890;2.306;2022-07-06T00:24:20;1.27;;;1.17;;
29254;SDS011;16277;48.890;2.306;2022-07-06T00:39:25;2.20;;;1.87;;
29254;SDS011;16277;48.890;2.306;2022-07-06T00:54:32;8.87;;;1.60;;
29254;SDS011;16277;48.890;2.306;2022-07-06T01:09:37;1.97;;;1.30;;
29254;SDS011;16277;48.890;2.306;2022-07-06T01:24:42;1.60;;;1.50;;
29254;SDS011;16277;48.890;2.306;2022-07-06T01:39:46;10.53;;;1.23;;
29254;SDS011;16277;48.890;2.306;2022-07-06T01:54:51;1.70;;;1.30;;
29254;SDS011;16277;48.890;2.306;2022-07-06T02:09:56;1.47;;;1.37;;
29254;SDS011;16277;48.890;2.306;2022-07-06T02:25:00;4.83;;;1.50;;
29254;SDS011;16277;48.890;2.306;2022-07-06T02:40:07;3.60;;;2.50;;
29254;SDS011;16277;48.890;2.306;2022-07-06T02:55:12;3.60;;;1.67;;
29254;SDS011;16277;48.890;2.306;2022-07-06T03:10:17;2.17;;;2.07;;
29254;SDS011;16277;48.890;2.306;2022-07-06T03:25:22;4.17;;;2.17;;
29254;SDS011;16277;48.890;2.306;2022-07-06T03:40:29;3.83;;;2.13;;
29254;SDS011;16277;48.890;2.306;2022-07-06T03:55:34;7.80;;;2.43;;
29254;SDS011;16277;48.890;2.306;2022-07-06T04:10:43;4.70;;;3.03;;
29254;SDS011;16277;48.890;2.306;2022-07-06T04:25:47;2.27;;;1.87;;
29254;SDS011;16277;48.890;2.306;2022-07-06T04:40:53;2.50;;;2.33;;
29254;SDS011;16277;48.890;2.306;2022-07-06T04:55:58;2.73;;;2.57;;
29254;SDS011;16277;48.890;2.306;2022-07-06T05:11:05;8.83;;;2.43;;
29254;SDS011;16277;48.890;2.306;2022-07-06T05:26:11;3.80;;;2.87;;
29254;SDS011;16277;48.890;2.306;2022-07-06T05:41:17;2.53;;;2.33;;
29254;SDS011;16277;48.890;2.306;2022-07-06T05:56:22;3.00;;;2.80;;
29254;SDS011;16277;48.890;2.306;2022-07-06T06:11:28;12.23;;;3.30;;
29254;SDS011;16277;48.890;2.306;2022-07-06T06:26:33;13.27;;;3.83;;
29254;SDS011;16277;48.890;2.306;2022-07-06T06:41:38;8.03;;;2.93;;
29254;SDS011;16277;48.890;2.306;2022-07-06T06:56:42;5.27;;;3.20;;
29254;SDS011;16277;48.890;2.306;2022-07-06T07:11:47;11.63;;;3.77;;
29254;SDS011;16277;48.890;2.306;2022-07-06T07:26:53;9.20;;;3.40;;
29254;SDS011;16277;48.890;2.306;2022-07-06T07:41:58;9.07;;;3.67;;
29254;SDS011;16277;48.890;2.306;2022-07-06T07:57:03;4.90;;;4.60;;
29254;SDS011;16277;48.890;2.306;2022-07-06T08:12:09;8.13;;;6.97;;
29254;SDS011;16277;48.890;2.306;2022-07-06T08:27:14;7.30;;;2.67;;
29254;SDS011;16277;48.890;2.306;2022-07-06T08:42:19;12.63;;;3.20;;
29254;SDS011;16277;48.890;2.306;2022-07-06T08:57:25;7.57;;;3.00;;
29254;SDS011;16277;48.890;2.306;2022-07-06T09:12:30;15.40;;;3.83;;
29254;SDS011;16277;48.890;2.306;2022-07-06T09:27:38;15.23;;;4.17;;
29254;SDS011;16277;48.890;2.306;2022-07-06T09:42:43;2.87;;;2.67;;
29254;SDS011;16277;48.890;2.306;2022-07-06T09:57:54;4.87;;;2.07;;
29254;SDS011;16277;48.890;2.306;2022-07-06T10:12:59;1.90;;;1.80;;
29254;SDS011;16277;48.890;2.306;2022-07-06T10:28:04;2.10;;;2.00;;
29254;SDS011;16277;48.890;2.306;2022-07-06T10:43:17;2.87;;;2.67;;
29254;SDS011;16277;48.890;2.306;2022-07-06T11:13:58;10.33;;;3.10;;
29254;SDS011;16277;48.890;2.306;2022-07-06T11:29:05;5.73;;;3.17;;
29254;SDS011;16277;48.890;2.306;2022-07-06T11:44:11;2.40;;;2.20;;
29254;SDS011;16277;48.890;2.306;2022-07-06T11:59:16;7.53;;;2.43;;
29254;SDS011;16277;48.890;2.306;2022-07-06T12:14:24;6.53;;;2.37;;
29254;SDS011;16277;48.890;2.306;2022-07-06T12:29:29;9.17;;;2.67;;
29254;SDS011;16277;48.890;2.306;2022-07-06T12:44:40;5.57;;;1.70;;
29254;SDS011;16277;48.890;2.306;2022-07-06T12:59:48;1.60;;;1.50;;
29254;SDS011;16277;48.890;2.306;2022-07-06T13:14:59;3.80;;;2.43;;
29254;SDS011;16277;48.890;2.306;2022-07-06T13:30:05;3.50;;;1.17;;
29254;SDS011;16277;48.890;2.306;2022-07-06T13:45:10;6.57;;;1.67;;
29254;SDS011;16277;48.890;2.306;2022-07-06T14:00:15;0.80;;;0.60;;
29254;SDS011;16277;48.890;2.306;2022-07-06T14:15:21;4.60;;;0.40;;
29254;SDS011;16277;48.890;2.306;2022-07-06T14:30:25;1.47;;;0.50;;
29254;SDS011;16277;48.890;2.306;2022-07-06T14:45:30;0.63;;;0.20;;
29254;SDS011;16277;48.890;2.306;2022-07-06T15:00:36;0.87;;;0.20;;
29254;SDS011;16277;48.890;2.306;2022-07-06T15:15:40;2.00;;;0.67;;
29254;SDS011;16277;48.890;2.306;2022-07-06T15:30:59;1.57;;;0.30;;
29254;SDS011;16277;48.890;2.306;2022-07-06T15:46:04;3.27;;;0.40;;
29254;SDS011;16277;48.890;2.306;2022-07-06T16:01:09;4.03;;;0.70;;
29254;SDS011;16277;48.890;2.306;2022-07-06T16:16:14;3.10;;;0.50;;
29254;SDS011;16277;48.890;2.306;2022-07-06T16:31:19;2.03;;;0.53;;
29254;SDS011;16277;48.890;2.306;2022-07-06T16:46:24;0.93;;;0.60;;
29254;SDS011;16277;48.890;2.306;2022-07-06T17:01:28;0.50;;;0.50;;
29254;SDS011;16277;48.890;2.306;2022-07-06T17:16:33;2.07;;;0.97;;
29254;SDS011;16277;48.890;2.306;2022-07-06T17:31:38;6.50;;;0.60;;
29254;SDS011;16277;48.890;2.306;2022-07-06T17:46:42;3.63;;;1.27;;
29254;SDS011;16277;48.890;2.306;2022-07-06T18:01:47;1.93;;;0.70;;
29254;SDS011;16277;48.890;2.306;2022-07-06T18:16:52;4.57;;;0.70;;
29254;SDS011;16277;48.890;2.306;2022-07-06T18:31:57;5.57;;;0.80;;
29254;SDS011;16277;48.890;2.306;2022-07-06T18:47:01;3.43;;;1.37;;
29254;SDS011;16277;48.890;2.306;2022-07-06T19:02:06;1.07;;;0.97;;
29254;SDS011;16277;48.890;2.306;2022-07-06T19:17:11;1.97;;;0.70;;
29254;SDS011;16277;48.890;2.306;2022-07-06T19:32:16;4.03;;;1.43;;
29254;SDS011;16277;48.890;2.306;2022-07-06T19:47:20;2.07;;;0.90;;
29254;SDS011;16277;48.890;2.306;2022-07-06T20:02:25;1.13;;;0.80;;
29254;SDS011;16277;48.890;2.306;2022-07-06T20:17:30;1.97;;;1.20;;
29254;SDS011;16277;48.890;2.306;2022-07-06T20:32:34;2.00;;;0.90;;
29254;SDS011;16277;48.890;2.306;2022-07-06T20:47:39;1.40;;;1.40;;
29254;SDS011;16277;48.890;2.306;2022-07-06T21:02:44;4.00;;;0.80;;
29254;SDS011;16277;48.890;2.306;2022-07-06T21:17:49;2.17;;;0.90;;
29254;SDS011;16277;48.890;2.306;2022-07-06T21:32:54;3.33;;;0.80;;
29254;SDS011;16277;48.890;2.306;2022-07-06T21:47:59;0.80;;;0.80;;
29254;SDS011;16277;48.890;2.306;2022-07-06T22:03:04;1.57;;;1.47;;
29254;SDS011;16277;48.890;2.306;2022-07-06T22:18:09;0.83;;;0.83;;
29254;SDS011;16277;48.890;2.306;2022-07-06T22:33:14;1.07;;;0.50;;
29254;SDS011;16277;48.890;2.306;2022-07-06T22:48:20;1.00;;;0.97;;
29254;SDS011;16277;48.890;2.306;2022-07-06T23:03:25;1.17;;;0.67;;
29254;SDS011;16277;48.890;2.306;2022-07-06T23:18:31;1.43;;;0.63;;
29254;SDS011;16277;48.890;2.306;2022-07-06T23:33:36;0.60;;;0.60;;
29254;SDS011;16277;48.890;2.306;2022-07-06T23:48:40;2.33;;;1.20;;
